Aurora — OS4771 — position and weather

sailwx.info

Track history (hours):
 
Tides and Currents Weather Stations Pressure Air Temp Water Temp Dewpoint Dewpoint Depression Visibility Wind Speed Wind Dir Waves Ship Positions

Aurora

Last reported at 2017-Sep-24 13:21 UTC. Time now 2017-Dec-13 22:50 UTC.
Position N 51°28' E 004°00'.
Warning: this ship's position is months out of date.

Length 14 m.

Type: Sailing vessel. MMSI: 205477100.

Date/timePositionNaut miles runAvg speedWind from/ knotsBaromVisibWave heightAir tempDewpointWater temp
2017-Sep-24 13:21N 51°28' E 004°00'1 1.7
2017-Sep-24 12:50N 51°27' E 004°01'2 5.3
2017-Sep-24 12:30N 51°26' E 003°59'4 7.4
2017-Sep-24 12:00N 51°22' E 003°56'3 6.9
2017-Sep-24 11:30N 51°21' E 003°52'3 5.7
2017-Sep-24 11:00N 51°21' E 003°47'3 5.3
2017-Sep-24 10:30N 51°22' E 003°43'3 5.5
2017-Sep-24 09:59N 51°23' E 003°39'3 0.3
2017-Sep-24 00:40N 51°24' E 003°34'0 0.0
2017-Sep-24 00:16N 51°24' E 003°34'0 0.0
2017-Sep-23 21:58N 51°24' E 003°34'35 0.8
2017-Sep-22 01:59N 51°08' E 002°44'0 0.0
2017-Sep-22 01:26N 51°08' E 002°44'0 0.0
2017-Sep-22 00:59N 51°08' E 002°44'0 0.0
2017-Sep-22 00:29N 51°08' E 002°44'0 0.0
2017-Sep-21 23:59N 51°08' E 002°44'0 0.0
2017-Sep-21 23:29N 51°08' E 002°44'0 0.0
2017-Sep-21 22:59N 51°08' E 002°44'0 0.0
2017-Sep-21 22:26N 51°08' E 002°44'0 0.0
2017-Sep-21 21:59N 51°08' E 002°44'0 0.0
2017-Sep-21 21:29N 51°08' E 002°44'0 0.0
2017-Sep-21 20:59N 51°08' E 002°44'0 0.0
2017-Sep-21 20:05N 51°08' E 002°44'0 0.0
2017-Sep-21 19:56N 51°08' E 002°44'0 0.0
2017-Sep-21 19:29N 51°08' E 002°44'0 0.0
2017-Sep-21 18:59N 51°08' E 002°44'0 0.0
2017-Sep-21 18:26N 51°08' E 002°44'0 0.0
2017-Sep-21 17:59N 51°08' E 002°44'0 0.0
2017-Sep-21 17:21N 51°08' E 002°44'0 0.0
2017-Sep-21 17:00N 51°08' E 002°44'0 0.0
2017-Sep-21 16:29N 51°08' E 002°44'0 0.0
2017-Sep-21 15:59N 51°08' E 002°44'1 2.4
2017-Sep-21 15:29N 51°09' E 002°43'3 6.3
2017-Sep-21 15:00N 51°09' E 002°38'4 7.5
2017-Sep-21 14:30N 51°08' E 002°33'4 7.8
2017-Sep-21 14:00N 51°05' E 002°28'5 8.9
2017-Sep-21 13:29N 51°04' E 002°21'5 9.1
2017-Sep-21 12:59N 51°04' E 002°14'5 9.2
2017-Sep-21 12:29N 51°03' E 002°07'4 8.9
2017-Sep-21 12:00N 51°02' E 002°00'  
2017-Sep-18 07:10N 49°45' W 001°13'2 9.4
2017-Sep-18 07:00N 49°45' W 001°15'5 9.9
2017-Sep-18 06:30N 49°45' W 001°23'510.0
2017-Sep-18 06:00N 49°43' W 001°30'4 8.1
2017-Sep-18 05:30N 49°41' W 001°35'3 4.8
2017-Sep-18 04:58N 49°39' W 001°37'0 0.0
2017-Sep-18 04:25N 49°39' W 001°37'0 0.0
2017-Sep-18 03:58N 49°39' W 001°37'0 0.0
2017-Sep-18 03:28N 49°39' W 001°37'0 0.0
2017-Sep-18 02:58N 49°39' W 001°37'0 0.0
2017-Sep-18 02:28N 49°39' W 001°37'0 0.0
2017-Sep-18 01:58N 49°39' W 001°37'0 0.0
2017-Sep-18 01:28N 49°39' W 001°37'0 0.0
2017-Sep-18 00:58N 49°39' W 001°37'0 0.0
2017-Sep-18 00:28N 49°39' W 001°37'0 0.0
2017-Sep-17 23:58N 49°39' W 001°37'0 0.0
2017-Sep-17 23:28N 49°39' W 001°37'0 0.0
2017-Sep-17 22:58N 49°39' W 001°37'0 0.0
2017-Sep-17 22:28N 49°39' W 001°37'0 0.0
2017-Sep-17 21:58N 49°39' W 001°37'0 0.0
2017-Sep-17 21:28N 49°39' W 001°37'0 0.0
2017-Sep-17 20:58N 49°39' W 001°37'0 0.0
2017-Sep-17 20:28N 49°39' W 001°37'0 0.0
2017-Sep-17 19:58N 49°39' W 001°37'0 0.0
2017-Sep-17 19:28N 49°39' W 001°37'0 0.0
2017-Sep-17 18:58N 49°39' W 001°37'0 0.0
2017-Sep-17 18:28N 49°39' W 001°37'0 0.0
2017-Sep-17 17:58N 49°39' W 001°37'0 0.0
2017-Sep-17 17:28N 49°39' W 001°37'1 1.4
2017-Sep-17 17:00N 49°39' W 001°37'4 7.3
2017-Sep-17 16:30N 49°41' W 001°42'4 8.9
2017-Sep-17 16:00N 49°43' W 001°48'  
Track history (hours):
 
Tides and Currents Weather Stations Pressure Air Temp Water Temp Dewpoint Dewpoint Depression Visibility Wind Speed Wind Dir Waves Ship Positions

Aurora

Last reported at 2017-Sep-24 13:21 UTC. Time now 2017-Dec-13 22:50 UTC.
Position N 51°28' E 004°00'.
Warning: this ship's position is months out of date.

Length 14 m.

Type: Sailing vessel. MMSI: 205477100.

Date/timePositionNaut miles runAvg speedWind from/ knotsBaromVisibWave heightAir tempDewpointWater temp
2017-Sep-24 13:21N 51°28' E 004°00'1 1.7
2017-Sep-24 12:50N 51°27' E 004°01'2 5.3
2017-Sep-24 12:30N 51°26' E 003°59'4 7.4
2017-Sep-24 12:00N 51°22' E 003°56'3 6.9
2017-Sep-24 11:30N 51°21' E 003°52'3 5.7
2017-Sep-24 11:00N 51°21' E 003°47'3 5.3
2017-Sep-24 10:30N 51°22' E 003°43'3 5.5
2017-Sep-24 09:59N 51°23' E 003°39'3 0.3
2017-Sep-24 00:40N 51°24' E 003°34'0 0.0
2017-Sep-24 00:16N 51°24' E 003°34'0 0.0
2017-Sep-23 21:58N 51°24' E 003°34'35 0.8
2017-Sep-22 01:59N 51°08' E 002°44'0 0.0
2017-Sep-22 01:26N 51°08' E 002°44'0 0.0
2017-Sep-22 00:59N 51°08' E 002°44'0 0.0
2017-Sep-22 00:29N 51°08' E 002°44'0 0.0
2017-Sep-21 23:59N 51°08' E 002°44'0 0.0
2017-Sep-21 23:29N 51°08' E 002°44'0 0.0
2017-Sep-21 22:59N 51°08' E 002°44'0 0.0
2017-Sep-21 22:26N 51°08' E 002°44'0 0.0
2017-Sep-21 21:59N 51°08' E 002°44'0 0.0
2017-Sep-21 21:29N 51°08' E 002°44'0 0.0
2017-Sep-21 20:59N 51°08' E 002°44'0 0.0
2017-Sep-21 20:05N 51°08' E 002°44'0 0.0
2017-Sep-21 19:56N 51°08' E 002°44'0 0.0
2017-Sep-21 19:29N 51°08' E 002°44'0 0.0
2017-Sep-21 18:59N 51°08' E 002°44'0 0.0
2017-Sep-21 18:26N 51°08' E 002°44'0 0.0
2017-Sep-21 17:59N 51°08' E 002°44'0 0.0
2017-Sep-21 17:21N 51°08' E 002°44'0 0.0
2017-Sep-21 17:00N 51°08' E 002°44'0 0.0
2017-Sep-21 16:29N 51°08' E 002°44'0 0.0
2017-Sep-21 15:59N 51°08' E 002°44'1 2.4
2017-Sep-21 15:29N 51°09' E 002°43'3 6.3
2017-Sep-21 15:00N 51°09' E 002°38'4 7.5
2017-Sep-21 14:30N 51°08' E 002°33'4 7.8
2017-Sep-21 14:00N 51°05' E 002°28'5 8.9
2017-Sep-21 13:29N 51°04' E 002°21'5 9.1
2017-Sep-21 12:59N 51°04' E 002°14'5 9.2
2017-Sep-21 12:29N 51°03' E 002°07'4 8.9
2017-Sep-21 12:00N 51°02' E 002°00'  
2017-Sep-18 07:10N 49°45' W 001°13'2 9.4
2017-Sep-18 07:00N 49°45' W 001°15'5 9.9
2017-Sep-18 06:30N 49°45' W 001°23'510.0
2017-Sep-18 06:00N 49°43' W 001°30'4 8.1
2017-Sep-18 05:30N 49°41' W 001°35'3 4.8
2017-Sep-18 04:58N 49°39' W 001°37'0 0.0
2017-Sep-18 04:25N 49°39' W 001°37'0 0.0
2017-Sep-18 03:58N 49°39' W 001°37'0 0.0
2017-Sep-18 03:28N 49°39' W 001°37'0 0.0
2017-Sep-18 02:58N 49°39' W 001°37'0 0.0
2017-Sep-18 02:28N 49°39' W 001°37'0 0.0
2017-Sep-18 01:58N 49°39' W 001°37'0 0.0
2017-Sep-18 01:28N 49°39' W 001°37'0 0.0
2017-Sep-18 00:58N 49°39' W 001°37'0 0.0
2017-Sep-18 00:28N 49°39' W 001°37'0 0.0
2017-Sep-17 23:58N 49°39' W 001°37'0 0.0
2017-Sep-17 23:28N 49°39' W 001°37'0 0.0
2017-Sep-17 22:58N 49°39' W 001°37'0 0.0
2017-Sep-17 22:28N 49°39' W 001°37'0 0.0
2017-Sep-17 21:58N 49°39' W 001°37'0 0.0
2017-Sep-17 21:28N 49°39' W 001°37'0 0.0
2017-Sep-17 20:58N 49°39' W 001°37'0 0.0
2017-Sep-17 20:28N 49°39' W 001°37'0 0.0
2017-Sep-17 19:58N 49°39' W 001°37'0 0.0
2017-Sep-17 19:28N 49°39' W 001°37'0 0.0
2017-Sep-17 18:58N 49°39' W 001°37'0 0.0
2017-Sep-17 18:28N 49°39' W 001°37'0 0.0
2017-Sep-17 17:58N 49°39' W 001°37'0 0.0
2017-Sep-17 17:28N 49°39' W 001°37'1 1.4
2017-Sep-17 17:00N 49°39' W 001°37'4 7.3
2017-Sep-17 16:30N 49°41' W 001°42'4 8.9
2017-Sep-17 16:00N 49°43' W 001°48'  

Dump ship's entire track history